sensor_id;sensor_type;location;lat;lon;timestamp;pressure;altitude;pressure_sealevel;temperature;humidity
12594;BME280;6362;50.208;9.182;2023-02-23T00:00:27;99493.28;;;7.50;81.10
12594;BME280;6362;50.208;9.182;2023-02-23T00:02:56;99489.81;;;7.51;81.05
12594;BME280;6362;50.208;9.182;2023-02-23T00:05:31;99492.38;;;7.53;80.90
12594;BME280;6362;50.208;9.182;2023-02-23T00:07:59;99493.25;;;7.56;80.66
12594;BME280;6362;50.208;9.182;2023-02-23T00:10:26;99487.22;;;7.56;80.90
12594;BME280;6362;50.208;9.182;2023-02-23T00:12:58;99485.50;;;7.56;80.89
12594;BME280;6362;50.208;9.182;2023-02-23T00:15:27;99490.66;;;7.58;81.10
12594;BME280;6362;50.208;9.182;2023-02-23T00:17:55;99494.94;;;7.68;79.66
12594;BME280;6362;50.208;9.182;2023-02-23T00:20:22;99484.59;;;7.60;79.69
12594;BME280;6362;50.208;9.182;2023-02-23T00:22:56;99486.34;;;7.57;79.96
12594;BME280;6362;50.208;9.182;2023-02-23T00:25:22;99482.03;;;7.56;80.21
12594;BME280;6362;50.208;9.182;2023-02-23T00:27:49;99478.59;;;7.54;80.60
12594;BME280;6362;50.208;9.182;2023-02-23T00:30:16;99481.19;;;7.57;80.67
12594;BME280;6362;50.208;9.182;2023-02-23T00:32:44;99479.44;;;7.63;80.74
12594;BME280;6362;50.208;9.182;2023-02-23T00:35:09;99477.69;;;7.65;80.60
12594;BME280;6362;50.208;9.182;2023-02-23T00:37:45;99478.53;;;7.69;80.99
12594;BME280;6362;50.208;9.182;2023-02-23T00:40:13;99483.69;;;7.75;80.13
12594;BME280;6362;50.208;9.182;2023-02-23T00:42:40;99477.66;;;7.75;80.50
12594;BME280;6362;50.208;9.182;2023-02-23T00:45:06;99481.13;;;7.71;80.32
12594;BME280;6362;50.208;9.182;2023-02-23T00:47:37;99482.84;;;7.72;79.92
12594;BME280;6362;50.208;9.182;2023-02-23T00:50:02;99489.78;;;7.68;80.14
12594;BME280;6362;50.208;9.182;2023-02-23T00:52:29;99479.44;;;7.66;80.28
12594;BME280;6362;50.208;9.182;2023-02-23T00:54:54;99487.97;;;7.82;79.69
12594;BME280;6362;50.208;9.182;2023-02-23T00:57:20;99478.53;;;7.74;79.95
12594;BME280;6362;50.208;9.182;2023-02-23T00:59:47;99477.63;;;7.85;78.95
12594;BME280;6362;50.208;9.182;2023-02-23T01:02:12;99485.44;;;7.70;79.08
12594;BME280;6362;50.208;9.182;2023-02-23T01:04:38;99478.56;;;7.61;79.44
12594;BME280;6362;50.208;9.182;2023-02-23T01:07:03;99490.66;;;7.58;79.86
12594;BME280;6362;50.208;9.182;2023-02-23T01:09:31;99491.53;;;7.57;80.28
12594;BME280;6362;50.208;9.182;2023-02-23T01:11:57;99480.31;;;7.56;80.31
12594;BME280;6362;50.208;9.182;2023-02-23T01:14:26;99477.72;;;7.56;80.59
12594;BME280;6362;50.208;9.182;2023-02-23T01:16:53;99481.19;;;7.57;80.78
12594;BME280;6362;50.208;9.182;2023-02-23T01:19:18;99486.38;;;7.55;81.21
12594;BME280;6362;50.208;9.182;2023-02-23T01:21:44;99483.72;;;7.60;81.43
12594;BME280;6362;50.208;9.182;2023-02-23T01:24:10;99484.59;;;7.63;81.45
12594;BME280;6362;50.208;9.182;2023-02-23T01:26:41;99484.59;;;7.68;81.57
12594;BME280;6362;50.208;9.182;2023-02-23T01:29:12;99479.41;;;7.73;81.85
12594;BME280;6362;50.208;9.182;2023-02-23T01:31:41;99479.38;;;7.74;81.62
12594;BME280;6362;50.208;9.182;2023-02-23T01:34:09;99478.53;;;7.75;82.20
12594;BME280;6362;50.208;9.182;2023-02-23T01:36:37;99478.50;;;7.83;81.45
12594;BME280;6362;50.208;9.182;2023-02-23T01:39:05;99469.91;;;7.75;81.43
12594;BME280;6362;50.208;9.182;2023-02-23T01:41:33;99475.94;;;7.74;81.66
12594;BME280;6362;50.208;9.182;2023-02-23T01:44:02;99473.34;;;7.71;81.73
12594;BME280;6362;50.208;9.182;2023-02-23T01:46:47;99477.69;;;7.68;82.17
12594;BME280;6362;50.208;9.182;2023-02-23T01:49:18;99472.50;;;7.70;80.17
12594;BME280;6362;50.208;9.182;2023-02-23T01:51:48;99466.50;;;7.57;80.55
12594;BME280;6362;50.208;9.182;2023-02-23T01:54:20;99470.81;;;7.49;81.01
12594;BME280;6362;50.208;9.182;2023-02-23T01:56:49;99471.72;;;7.45;81.24
12594;BME280;6362;50.208;9.182;2023-02-23T01:59:24;99468.28;;;7.41;81.59
12594;BME280;6362;50.208;9.182;2023-02-23T02:01:53;99476.88;;;7.44;81.68
12594;BME280;6362;50.208;9.182;2023-02-23T02:04:20;99472.59;;;7.41;81.59
12594;BME280;6362;50.208;9.182;2023-02-23T02:06:47;99470.00;;;7.38;82.30
12594;BME280;6362;50.208;9.182;2023-02-23T02:09:19;99474.31;;;7.37;82.04
12594;BME280;6362;50.208;9.182;2023-02-23T02:11:50;99470.00;;;7.35;82.19
12594;BME280;6362;50.208;9.182;2023-02-23T02:14:23;99470.88;;;7.35;82.15
12594;BME280;6362;50.208;9.182;2023-02-23T02:25:31;99472.63;;;7.29;82.19
12594;BME280;6362;50.208;9.182;2023-02-23T02:41:56;99459.66;;;7.32;82.90
12594;BME280;6362;50.208;9.182;2023-02-23T02:47:27;99460.53;;;7.29;82.80
12594;BME280;6362;50.208;9.182;2023-02-23T02:50:13;99456.22;;;7.27;82.79
12594;BME280;6362;50.208;9.182;2023-02-23T02:52:51;99453.63;;;7.25;83.09
12594;BME280;6362;50.208;9.182;2023-02-23T02:55:25;99453.63;;;7.27;83.25
12594;BME280;6362;50.208;9.182;2023-02-23T02:57:56;99452.78;;;7.26;83.48
12594;BME280;6362;50.208;9.182;2023-02-23T03:00:30;99451.88;;;7.41;82.41
12594;BME280;6362;50.208;9.182;2023-02-23T03:03:28;99451.06;;;7.28;82.68
12594;BME280;6362;50.208;9.182;2023-02-23T03:06:12;99451.06;;;7.24;83.21
12594;BME280;6362;50.208;9.182;2023-02-23T03:12:39;99451.06;;;7.24;83.85
12594;BME280;6362;50.208;9.182;2023-02-23T03:15:36;99453.66;;;7.28;84.25
12594;BME280;6362;50.208;9.182;2023-02-23T03:18:32;99452.78;;;7.29;84.01
12594;BME280;6362;50.208;9.182;2023-02-23T03:21:24;99445.88;;;7.25;83.87
12594;BME280;6362;50.208;9.182;2023-02-23T03:24:52;99457.09;;;7.21;84.14
12594;BME280;6362;50.208;9.182;2023-02-23T03:30:44;99454.50;;;7.21;84.63
12594;BME280;6362;50.208;9.182;2023-02-23T03:33:41;99448.50;;;7.22;85.09
12594;BME280;6362;50.208;9.182;2023-02-23T03:36:27;99455.38;;;7.20;85.22
12594;BME280;6362;50.208;9.182;2023-02-23T03:42:36;99452.78;;;7.25;85.28
12594;BME280;6362;50.208;9.182;2023-02-23T03:45:24;99452.78;;;7.26;85.83
12594;BME280;6362;50.208;9.182;2023-02-23T03:48:11;99456.19;;;7.44;85.10
12594;BME280;6362;50.208;9.182;2023-02-23T03:51:00;99453.63;;;7.34;85.52
12594;BME280;6362;50.208;9.182;2023-02-23T03:53:52;99458.81;;;7.30;85.96
12594;BME280;6362;50.208;9.182;2023-02-23T03:56:43;99461.41;;;7.28;85.87
12594;BME280;6362;50.208;9.182;2023-02-23T03:59:33;99462.25;;;7.26;86.18
12594;BME280;6362;50.208;9.182;2023-02-23T04:12:33;99470.03;;;7.26;86.91
12594;BME280;6362;50.208;9.182;2023-02-23T04:15:33;99464.84;;;7.29;86.93
12594;BME280;6362;50.208;9.182;2023-02-23T04:18:02;99463.97;;;7.30;87.06
12594;BME280;6362;50.208;9.182;2023-02-23T04:20:28;99476.06;;;7.34;87.24
12594;BME280;6362;50.208;9.182;2023-02-23T04:22:54;99470.00;;;7.36;87.48
12594;BME280;6362;50.208;9.182;2023-02-23T04:25:19;99472.59;;;7.41;87.60
12594;BME280;6362;50.208;9.182;2023-02-23T04:27:49;99471.72;;;7.45;87.50
12594;BME280;6362;50.208;9.182;2023-02-23T04:30:15;99470.00;;;7.46;87.60
12594;BME280;6362;50.208;9.182;2023-02-23T04:32:42;99464.81;;;7.47;87.85
12594;BME280;6362;50.208;9.182;2023-02-23T04:35:11;99472.56;;;7.50;87.77
12594;BME280;6362;50.208;9.182;2023-02-23T04:37:36;99474.28;;;7.51;87.97
12594;BME280;6362;50.208;9.182;2023-02-23T04:40:02;99476.00;;;7.54;88.13
12594;BME280;6362;50.208;9.182;2023-02-23T04:42:27;99476.00;;;7.57;88.20
12594;BME280;6362;50.208;9.182;2023-02-23T04:44:54;99478.56;;;7.60;88.21
12594;BME280;6362;50.208;9.182;2023-02-23T04:47:19;99472.53;;;7.64;88.48
12594;BME280;6362;50.208;9.182;2023-02-23T04:49:44;99469.06;;;7.66;88.80
12594;BME280;6362;50.208;9.182;2023-02-23T04:52:10;99473.38;;;7.69;88.57
12594;BME280;6362;50.208;9.182;2023-02-23T04:54:39;99475.94;;;7.71;88.59
12594;BME280;6362;50.208;9.182;2023-02-23T04:57:05;99474.22;;;7.73;88.71
12594;BME280;6362;50.208;9.182;2023-02-23T04:59:31;99473.34;;;7.74;88.83
12594;BME280;6362;50.208;9.182;2023-02-23T05:01:57;99476.78;;;7.76;88.93
12594;BME280;6362;50.208;9.182;2023-02-23T05:04:22;99476.72;;;7.88;88.55
12594;BME280;6362;50.208;9.182;2023-02-23T05:06:48;99473.31;;;7.77;87.98
12594;BME280;6362;50.208;9.182;2023-02-23T05:09:14;99474.22;;;7.73;88.12
12594;BME280;6362;50.208;9.182;2023-02-23T05:11:39;99469.94;;;7.64;88.21
12594;BME280;6362;50.208;9.182;2023-02-23T05:14:05;99469.94;;;7.58;88.25
12594;BME280;6362;50.208;9.182;2023-02-23T05:16:31;99469.97;;;7.53;88.46
12594;BME280;6362;50.208;9.182;2023-02-23T05:18:57;99466.53;;;7.50;88.18
12594;BME280;6362;50.208;9.182;2023-02-23T05:21:22;99471.69;;;7.44;88.20
12594;BME280;6362;50.208;9.182;2023-02-23T05:23:49;99471.72;;;7.40;88.54
12594;BME280;6362;50.208;9.182;2023-02-23T05:26:14;99464.81;;;7.36;88.32
12594;BME280;6362;50.208;9.182;2023-02-23T05:28:41;99470.00;;;7.36;88.46
12594;BME280;6362;50.208;9.182;2023-02-23T05:31:06;99476.91;;;7.31;88.51
12594;BME280;6362;50.208;9.182;2023-02-23T05:33:33;99468.28;;;7.31;88.50
12594;BME280;6362;50.208;9.182;2023-02-23T05:36:03;99470.00;;;7.27;88.63
12594;BME280;6362;50.208;9.182;2023-02-23T05:38:29;99470.91;;;7.28;88.56
12594;BME280;6362;50.208;9.182;2023-02-23T05:40:54;99464.88;;;7.23;88.66
12594;BME280;6362;50.208;9.182;2023-02-23T05:43:19;99471.78;;;7.22;88.79
12594;BME280;6362;50.208;9.182;2023-02-23T05:45:45;99476.09;;;7.17;89.04
12594;BME280;6362;50.208;9.182;2023-02-23T05:48:11;99469.19;;;7.18;89.12
12594;BME280;6362;50.208;9.182;2023-02-23T05:50:37;99472.63;;;7.20;89.27
12594;BME280;6362;50.208;9.182;2023-02-23T05:53:03;99468.31;;;7.15;89.21
12594;BME280;6362;50.208;9.182;2023-02-23T05:55:28;99482.13;;;7.18;89.22
12594;BME280;6362;50.208;9.182;2023-02-23T05:57:54;99475.19;;;7.15;89.65
12594;BME280;6362;50.208;9.182;2023-02-23T06:00:20;99471.78;;;7.11;89.66
12594;BME280;6362;50.208;9.182;2023-02-23T06:02:46;99483.81;;;7.15;89.52
12594;BME280;6362;50.208;9.182;2023-02-23T06:05:12;99478.69;;;7.11;89.87
12594;BME280;6362;50.208;9.182;2023-02-23T06:07:38;99484.72;;;7.11;89.88
12594;BME280;6362;50.208;9.182;2023-02-23T06:10:04;99476.94;;;7.10;89.74
12594;BME280;6362;50.208;9.182;2023-02-23T06:12:30;99482.09;;;7.14;90.13
12594;BME280;6362;50.208;9.182;2023-02-23T06:14:55;99481.25;;;7.17;89.63
12594;BME280;6362;50.208;9.182;2023-02-23T06:17:22;99484.69;;;7.16;89.92
12594;BME280;6362;50.208;9.182;2023-02-23T06:19:47;99491.59;;;7.17;89.78
12594;BME280;6362;50.208;9.182;2023-02-23T06:22:13;99499.31;;;7.32;89.71
12594;BME280;6362;50.208;9.182;2023-02-23T06:24:41;99492.41;;;7.44;89.02
12594;BME280;6362;50.208;9.182;2023-02-23T06:27:07;99490.72;;;7.23;89.21
12594;BME280;6362;50.208;9.182;2023-02-23T06:29:32;99495.03;;;7.21;89.41
12594;BME280;6362;50.208;9.182;2023-02-23T06:31:58;99489.00;;;7.15;89.46
12594;BME280;6362;50.208;9.182;2023-02-23T06:34:24;99491.59;;;7.11;89.64
12594;BME280;6362;50.208;9.182;2023-02-23T06:36:49;99492.47;;;7.11;89.83
12594;BME280;6362;50.208;9.182;2023-02-23T06:39:15;99493.31;;;7.13;90.21
12594;BME280;6362;50.208;9.182;2023-02-23T06:41:40;99496.75;;;7.15;90.15
12594;BME280;6362;50.208;9.182;2023-02-23T06:44:05;99496.75;;;7.19;90.24
12594;BME280;6362;50.208;9.182;2023-02-23T06:46:31;99501.94;;;7.17;90.14
12594;BME280;6362;50.208;9.182;2023-02-23T06:48:57;99501.91;;;7.20;90.23
12594;BME280;6362;50.208;9.182;2023-02-23T06:51:24;99510.53;;;7.25;90.37
12594;BME280;6362;50.208;9.182;2023-02-23T06:53:49;99508.84;;;7.23;90.07
12594;BME280;6362;50.208;9.182;2023-02-23T06:56:16;99512.28;;;7.19;90.14
12594;BME280;6362;50.208;9.182;2023-02-23T06:58:42;99508.84;;;7.17;90.22
12594;BME280;6362;50.208;9.182;2023-02-23T07:01:08;99515.72;;;7.18;90.39
12594;BME280;6362;50.208;9.182;2023-02-23T07:03:34;99517.44;;;7.20;90.55
12594;BME280;6362;50.208;9.182;2023-02-23T07:05:59;99514.00;;;7.23;90.34
12594;BME280;6362;50.208;9.182;2023-02-23T07:08:25;99514.84;;;7.22;90.71
12594;BME280;6362;50.208;9.182;2023-02-23T07:10:50;99519.16;;;7.29;90.65
12594;BME280;6362;50.208;9.182;2023-02-23T07:13:16;99522.63;;;7.34;90.77
12594;BME280;6362;50.208;9.182;2023-02-23T07:15:41;99526.06;;;7.34;91.03
12594;BME280;6362;50.208;9.182;2023-02-23T07:18:07;99530.38;;;7.38;90.73
12594;BME280;6362;50.208;9.182;2023-02-23T07:20:33;99532.94;;;7.41;90.72
12594;BME280;6362;50.208;9.182;2023-02-23T07:22:59;99531.22;;;7.42;90.83
12594;BME280;6362;50.208;9.182;2023-02-23T07:25:26;99534.66;;;7.46;90.73
12594;BME280;6362;50.208;9.182;2023-02-23T07:27:52;99536.38;;;7.53;90.80
12594;BME280;6362;50.208;9.182;2023-02-23T07:30:18;99532.91;;;7.58;90.47
12594;BME280;6362;50.208;9.182;2023-02-23T07:32:44;99536.38;;;7.59;90.38
12594;BME280;6362;50.208;9.182;2023-02-23T07:35:10;99535.53;;;7.55;90.37
12594;BME280;6362;50.208;9.182;2023-02-23T07:37:35;99530.34;;;7.49;90.64
12594;BME280;6362;50.208;9.182;2023-02-23T07:40:01;99530.31;;;7.69;89.83
12594;BME280;6362;50.208;9.182;2023-02-23T07:42:27;99530.34;;;7.54;89.49
12594;BME280;6362;50.208;9.182;2023-02-23T07:44:52;99535.53;;;7.52;89.68
12594;BME280;6362;50.208;9.182;2023-02-23T07:47:17;99543.25;;;7.60;89.19
12594;BME280;6362;50.208;9.182;2023-02-23T07:49:43;99532.94;;;7.46;89.33
12594;BME280;6362;50.208;9.182;2023-02-23T07:52:08;99535.53;;;7.43;89.67
12594;BME280;6362;50.208;9.182;2023-02-23T07:54:34;99541.56;;;7.44;89.72
12594;BME280;6362;50.208;9.182;2023-02-23T07:56:59;99541.56;;;7.45;89.96
12594;BME280;6362;50.208;9.182;2023-02-23T07:59:25;99542.41;;;7.49;90.40
12594;BME280;6362;50.208;9.182;2023-02-23T08:01:50;99545.88;;;7.52;90.46
12594;BME280;6362;50.208;9.182;2023-02-23T08:04:16;99541.53;;;7.54;90.32
12594;BME280;6362;50.208;9.182;2023-02-23T08:06:42;99537.25;;;7.56;90.51
12594;BME280;6362;50.208;9.182;2023-02-23T08:09:08;99542.41;;;7.61;90.66
12594;BME280;6362;50.208;9.182;2023-02-23T08:11:34;99545.81;;;7.66;90.56
12594;BME280;6362;50.208;9.182;2023-02-23T08:14:00;99542.38;;;7.70;90.50
12594;BME280;6362;50.208;9.182;2023-02-23T08:16:27;99551.88;;;7.73;90.77
12594;BME280;6362;50.208;9.182;2023-02-23T08:18:55;99551.84;;;7.83;90.25
12594;BME280;6362;50.208;9.182;2023-02-23T08:21:23;99551.81;;;7.91;89.33
12594;BME280;6362;50.208;9.182;2023-02-23T08:23:48;99550.97;;;7.87;88.62
12594;BME280;6362;50.208;9.182;2023-02-23T08:26:14;99559.59;;;7.86;88.76
12594;BME280;6362;50.208;9.182;2023-02-23T08:28:39;99556.16;;;7.80;89.08
12594;BME280;6362;50.208;9.182;2023-02-23T08:31:09;99558.78;;;7.78;89.07
12594;BME280;6362;50.208;9.182;2023-02-23T08:33:35;99560.47;;;7.72;89.15
12594;BME280;6362;50.208;9.182;2023-02-23T08:36:02;99555.34;;;7.68;89.53
12594;BME280;6362;50.208;9.182;2023-02-23T08:38:29;99568.25;;;7.72;89.45
12594;BME280;6362;50.208;9.182;2023-02-23T08:40:54;99568.28;;;7.73;89.50
12594;BME280;6362;50.208;9.182;2023-02-23T08:43:20;99569.97;;;7.76;89.77
12594;BME280;6362;50.208;9.182;2023-02-23T08:45:46;99564.81;;;7.79;89.51
12594;BME280;6362;50.208;9.182;2023-02-23T08:48:12;99572.53;;;7.82;89.87
12594;BME280;6362;50.208;9.182;2023-02-23T08:50:37;99561.34;;;7.84;89.79
12594;BME280;6362;50.208;9.182;2023-02-23T08:53:02;99562.19;;;7.85;89.88
12594;BME280;6362;50.208;9.182;2023-02-23T08:55:29;99567.34;;;7.88;89.72
12594;BME280;6362;50.208;9.182;2023-02-23T08:57:55;99563.03;;;7.94;90.10
12594;BME280;6362;50.208;9.182;2023-02-23T09:00:20;99563.88;;;8.03;90.17
12594;BME280;6362;50.208;9.182;2023-02-23T09:02:46;99569.91;;;8.08;90.31
12594;BME280;6362;50.208;9.182;2023-02-23T09:05:12;99572.44;;;8.18;90.13
12594;BME280;6362;50.208;9.182;2023-02-23T09:07:39;99567.25;;;8.25;90.04
12594;BME280;6362;50.208;9.182;2023-02-23T09:10:05;99578.44;;;8.34;89.96
12594;BME280;6362;50.208;9.182;2023-02-23T09:12:31;99574.97;;;8.44;89.39
12594;BME280;6362;50.208;9.182;2023-02-23T09:14:57;99573.25;;;8.45;89.43
12594;BME280;6362;50.208;9.182;2023-02-23T09:17:22;99580.97;;;8.51;88.88
12594;BME280;6362;50.208;9.182;2023-02-23T09:19:48;99576.69;;;8.45;88.72
12594;BME280;6362;50.208;9.182;2023-02-23T09:22:14;99572.38;;;8.44;88.54
12594;BME280;6362;50.208;9.182;2023-02-23T09:24:39;99580.13;;;8.43;88.62
12594;BME280;6362;50.208;9.182;2023-02-23T09:27:05;99581.88;;;8.41;88.39
12594;BME280;6362;50.208;9.182;2023-02-23T09:29:32;99581.03;;;8.39;89.05
12594;BME280;6362;50.208;9.182;2023-02-23T09:31:57;99587.06;;;8.38;88.74
12594;BME280;6362;50.208;9.182;2023-02-23T09:34:23;99587.91;;;8.43;89.13
12594;BME280;6362;50.208;9.182;2023-02-23T09:36:48;99581.91;;;8.39;88.85
12594;BME280;6362;50.208;9.182;2023-02-23T09:39:15;99589.69;;;8.39;88.98
12594;BME280;6362;50.208;9.182;2023-02-23T09:45:00;99592.25;;;8.42;89.10
12594;BME280;6362;50.208;9.182;2023-02-23T09:50:21;99593.06;;;8.49;89.47
12594;BME280;6362;50.208;9.182;2023-02-23T09:52:54;99597.34;;;8.55;89.17
12594;BME280;6362;50.208;9.182;2023-02-23T09:55:20;99597.34;;;8.61;89.18
12594;BME280;6362;50.208;9.182;2023-02-23T09:57:47;99603.41;;;8.61;89.51
12594;BME280;6362;50.208;9.182;2023-02-23T10:05:19;99599.94;;;8.62;88.95
12594;BME280;6362;50.208;9.182;2023-02-23T10:07:55;99612.03;;;8.66;89.07
12594;BME280;6362;50.208;9.182;2023-02-23T10:15:54;99609.41;;;8.65;89.01
12594;BME280;6362;50.208;9.182;2023-02-23T10:18:45;99614.59;;;8.65;89.31
12594;BME280;6362;50.208;9.182;2023-02-23T10:23:53;99607.63;;;8.76;89.04
12594;BME280;6362;50.208;9.182;2023-02-23T10:26:24;99605.84;;;8.86;89.48
12594;BME280;6362;50.208;9.182;2023-02-23T10:28:53;99612.72;;;8.96;89.35
12594;BME280;6362;50.208;9.182;2023-02-23T10:33:51;99609.13;;;9.14;88.86
12594;BME280;6362;50.208;9.182;2023-02-23T10:36:28;99603.94;;;9.17;88.51
12594;BME280;6362;50.208;9.182;2023-02-23T10:38:56;99599.59;;;9.19;88.18
12594;BME280;6362;50.208;9.182;2023-02-23T10:41:21;99602.16;;;9.22;88.30
12594;BME280;6362;50.208;9.182;2023-02-23T10:43:47;99605.59;;;9.24;87.93
12594;BME280;6362;50.208;9.182;2023-02-23T10:46:19;99607.31;;;9.28;87.91
12594;BME280;6362;50.208;9.182;2023-02-23T10:48:47;99613.34;;;9.25;88.18
12594;BME280;6362;50.208;9.182;2023-02-23T10:51:26;99615.06;;;9.31;87.58
12594;BME280;6362;50.208;9.182;2023-02-23T10:53:53;99606.41;;;9.31;87.66
12594;BME280;6362;50.208;9.182;2023-02-23T10:56:20;99609.81;;;9.36;87.86
12594;BME280;6362;50.208;9.182;2023-02-23T10:58:49;99609.78;;;9.45;87.61
12594;BME280;6362;50.208;9.182;2023-02-23T11:01:39;99601.06;;;9.49;87.75
12594;BME280;6362;50.208;9.182;2023-02-23T11:06:43;99603.50;;;9.67;87.61
12594;BME280;6362;50.208;9.182;2023-02-23T11:09:29;99599.94;;;9.76;87.45
12594;BME280;6362;50.208;9.182;2023-02-23T11:14:41;99595.56;;;9.84;86.71
12594;BME280;6362;50.208;9.182;2023-02-23T11:19:47;99597.19;;;9.93;86.52
12594;BME280;6362;50.208;9.182;2023-02-23T11:22:18;99596.31;;;9.95;86.40
12594;BME280;6362;50.208;9.182;2023-02-23T11:24:48;99590.22;;;9.99;85.89
12594;BME280;6362;50.208;9.182;2023-02-23T11:27:23;99591.84;;;10.08;86.01
12594;BME280;6362;50.208;9.182;2023-02-23T11:29:53;99590.84;;;10.18;85.95
12594;BME280;6362;50.208;9.182;2023-02-23T11:32:28;99587.38;;;10.24;85.61
12594;BME280;6362;50.208;9.182;2023-02-23T11:37:39;99589.69;;;10.47;84.96
12594;BME280;6362;50.208;9.182;2023-02-23T11:40:32;99585.25;;;10.53;84.09
12594;BME280;6362;50.208;9.182;2023-02-23T11:43:06;99586.03;;;10.60;83.90
12594;BME280;6362;50.208;9.182;2023-02-23T11:45:49;99582.56;;;10.60;82.66
12594;BME280;6362;50.208;9.182;2023-02-23T11:48:40;99578.16;;;10.66;82.25
12594;BME280;6362;50.208;9.182;2023-02-23T11:51:08;99579.88;;;10.67;82.35
12594;BME280;6362;50.208;9.182;2023-02-23T11:53:39;99574.69;;;10.66;81.96
12594;BME280;6362;50.208;9.182;2023-02-23T11:56:08;99574.56;;;10.75;81.61
12594;BME280;6362;50.208;9.182;2023-02-23T11:58:43;99573.59;;;10.83;81.63
12594;BME280;6362;50.208;9.182;2023-02-23T12:01:13;99574.38;;;10.89;81.80
12594;BME280;6362;50.208;9.182;2023-02-23T12:06:33;99562.94;;;10.99;81.74
12594;BME280;6362;50.208;9.182;2023-02-23T12:11:40;99562.06;;;10.98;80.63
12594;BME280;6362;50.208;9.182;2023-02-23T12:14:25;99554.34;;;10.95;80.81
12594;BME280;6362;50.208;9.182;2023-02-23T12:17:39;99556.00;;;10.98;80.47
12594;BME280;6362;50.208;9.182;2023-02-23T12:20:04;99556.94;;;10.95;80.08
12594;BME280;6362;50.208;9.182;2023-02-23T12:22:38;99555.41;;;10.80;80.50
12594;BME280;6362;50.208;9.182;2023-02-23T12:25:28;99550.34;;;10.70;80.79
12594;BME280;6362;50.208;9.182;2023-02-23T12:28:01;99558.16;;;10.70;81.46
12594;BME280;6362;50.208;9.182;2023-02-23T12:30:45;99548.72;;;10.64;81.20
12594;BME280;6362;50.208;9.182;2023-02-23T12:33:40;99558.47;;;10.47;82.07
12594;BME280;6362;50.208;9.182;2023-02-23T12:39:02;99563.00;;;10.34;82.68
12594;BME280;6362;50.208;9.182;2023-02-23T12:41:35;99561.28;;;10.33;82.95
12594;BME280;6362;50.208;9.182;2023-02-23T12:44:33;99556.84;;;10.38;83.04
12594;BME280;6362;50.208;9.182;2023-02-23T12:47:08;99557.78;;;10.34;83.14
12594;BME280;6362;50.208;9.182;2023-02-23T12:49:51;99556.00;;;10.36;83.28
12594;BME280;6362;50.208;9.182;2023-02-23T12:52:30;99555.06;;;10.42;82.87
12594;BME280;6362;50.208;9.182;2023-02-23T12:54:57;99549.00;;;10.44;83.15
12594;BME280;6362;50.208;9.182;2023-02-23T12:57:31;99554.16;;;10.46;83.00
12594;BME280;6362;50.208;9.182;2023-02-23T13:03:35;99549.00;;;10.43;82.60
12594;BME280;6362;50.208;9.182;2023-02-23T13:06:21;99547.34;;;10.39;82.82
12594;BME280;6362;50.208;9.182;2023-02-23T13:18:51;99541.25;;;10.38;83.45
12594;BME280;6362;50.208;9.182;2023-02-23T13:24:42;99533.31;;;10.50;82.86
12594;BME280;6362;50.208;9.182;2023-02-23T13:27:18;99532.28;;;10.62;83.22
12594;BME280;6362;50.208;9.182;2023-02-23T13:29:49;99526.81;;;10.79;83.23
12594;BME280;6362;50.208;9.182;2023-02-23T13:32:31;99527.56;;;10.87;82.75
12594;BME280;6362;50.208;9.182;2023-02-23T13:34:58;99519.56;;;11.01;82.37
12594;BME280;6362;50.208;9.182;2023-02-23T13:48:28;99526.25;;;11.14;80.07
12594;BME280;6362;50.208;9.182;2023-02-23T13:51:11;99527.97;;;11.15;80.08
12594;BME280;6362;50.208;9.182;2023-02-23T13:53:57;99523.69;;;11.13;80.35
12594;BME280;6362;50.208;9.182;2023-02-23T13:56:28;99522.94;;;11.06;80.64
12594;BME280;6362;50.208;9.182;2023-02-23T14:01:35;99522.38;;;10.86;80.65
12594;BME280;6362;50.208;9.182;2023-02-23T14:04:04;99528.50;;;10.81;81.09
12594;BME280;6362;50.208;9.182;2023-02-23T14:06:32;99532.06;;;10.76;80.95
12594;BME280;6362;50.208;9.182;2023-02-23T14:09:06;99533.97;;;10.65;80.89
12594;BME280;6362;50.208;9.182;2023-02-23T14:11:48;99535.69;;;10.64;81.07
12594;BME280;6362;50.208;9.182;2023-02-23T14:17:37;99532.41;;;10.51;81.76
12594;BME280;6362;50.208;9.182;2023-02-23T14:20:22;99530.75;;;10.46;81.63
12594;BME280;6362;50.208;9.182;2023-02-23T14:28:32;99537.03;;;10.29;82.83
12594;BME280;6362;50.208;9.182;2023-02-23T14:31:16;99537.94;;;10.25;83.33
12594;BME280;6362;50.208;9.182;2023-02-23T14:41:28;99534.03;;;9.89;84.47
12594;BME280;6362;50.208;9.182;2023-02-23T14:47:04;99526.31;;;9.82;84.84
12594;BME280;6362;50.208;9.182;2023-02-23T14:49:34;99526.31;;;9.82;84.80
12594;BME280;6362;50.208;9.182;2023-02-23T14:52:08;99516.78;;;9.82;85.32
12594;BME280;6362;50.208;9.182;2023-02-23T14:54:39;99524.56;;;9.85;84.99
12594;BME280;6362;50.208;9.182;2023-02-23T14:57:16;99515.00;;;9.89;85.05
12594;BME280;6362;50.208;9.182;2023-02-23T14:59:50;99520.94;;;9.97;84.77
12594;BME280;6362;50.208;9.182;2023-02-23T15:02:18;99520.84;;;10.06;84.90
12594;BME280;6362;50.208;9.182;2023-02-23T15:04:44;99527.69;;;10.13;84.64
12594;BME280;6362;50.208;9.182;2023-02-23T15:07:18;99534.56;;;10.17;84.39
12594;BME280;6362;50.208;9.182;2023-02-23T15:09:54;99527.59;;;10.22;83.86
12594;BME280;6362;50.208;9.182;2023-02-23T15:12:20;99531.03;;;10.23;83.48
12594;BME280;6362;50.208;9.182;2023-02-23T15:14:48;99533.63;;;10.27;83.54
12594;BME280;6362;50.208;9.182;2023-02-23T15:17:22;99535.28;;;10.31;83.34
12594;BME280;6362;50.208;9.182;2023-02-23T15:19:55;99530.97;;;10.30;83.45
12594;BME280;6362;50.208;9.182;2023-02-23T15:22:34;99535.38;;;10.24;83.17
12594;BME280;6362;50.208;9.182;2023-02-23T15:25:10;99532.84;;;10.18;82.87
12594;BME280;6362;50.208;9.182;2023-02-23T15:27:41;99538.94;;;10.14;83.05
12594;BME280;6362;50.208;9.182;2023-02-23T15:33:05;99543.31;;;10.12;83.14
12594;BME280;6362;50.208;9.182;2023-02-23T15:35:39;99544.19;;;10.11;83.31
12594;BME280;6362;50.208;9.182;2023-02-23T15:38:11;99547.63;;;10.10;83.59
12594;BME280;6362;50.208;9.182;2023-02-23T15:40:39;99544.31;;;9.98;83.03
12594;BME280;6362;50.208;9.182;2023-02-23T15:43:09;99549.56;;;9.95;83.46
12594;BME280;6362;50.208;9.182;2023-02-23T15:45:42;99540.03;;;9.93;83.28
12594;BME280;6362;50.208;9.182;2023-02-23T15:48:14;99547.00;;;9.91;83.65
12594;BME280;6362;50.208;9.182;2023-02-23T15:50:51;99540.91;;;9.92;83.40
12594;BME280;6362;50.208;9.182;2023-02-23T15:53:27;99546.97;;;9.95;83.74
12594;BME280;6362;50.208;9.182;2023-02-23T15:55:56;99540.91;;;9.95;83.46
12594;BME280;6362;50.208;9.182;2023-02-23T15:58:27;99552.19;;;9.94;83.43